createdAt,value
2023-07-25T00:05:17.236Z,99170.30
2023-07-25T00:35:20.173Z,99188.80
2023-07-25T01:05:23.791Z,99193.72
2023-07-25T01:35:26.759Z,99205.59
2023-07-25T02:05:30.583Z,99226.75
2023-07-25T02:35:33.621Z,99255.22
2023-07-25T03:05:37.747Z,99288.23
2023-07-25T03:35:40.732Z,99288.55
2023-07-25T04:05:44.572Z,99292.95
2023-07-25T04:35:48.488Z,99321.79
2023-07-25T05:05:51.745Z,99346.75
2023-07-25T05:35:54.744Z,99347.25
2023-07-25T06:05:58.132Z,99388.72
2023-07-25T06:36:01.088Z,99393.54
2023-07-25T07:06:04.551Z,99428.05
2023-07-25T07:36:07.514Z,99430.10
2023-07-25T08:06:13.283Z,99409.72
2023-07-25T08:36:16.386Z,99398.57
2023-07-25T09:06:19.906Z,99433.03
2023-07-25T09:36:22.878Z,99427.81
2023-07-25T10:06:26.391Z,99391.02
2023-07-25T10:36:29.384Z,99416.50
2023-07-25T11:06:33.411Z,99429.64
2023-07-25T11:36:36.381Z,99410.17
2023-07-25T12:06:41.045Z,99397.69
2023-07-25T12:36:44.133Z,99372.22
2023-07-25T13:06:47.604Z,99374.42
2023-07-25T13:36:50.581Z,99341.11
2023-07-25T14:06:54.494Z,99348.94
2023-07-25T14:36:57.467Z,99345.74
2023-07-25T15:07:01.143Z,99330.64
2023-07-25T15:37:04.410Z,99322.72
2023-07-25T16:07:08.096Z,99322.78
2023-07-25T16:37:11.074Z,99313.23
2023-07-25T17:07:14.198Z,99304.38
2023-07-25T17:37:17.854Z,99332.45
2023-07-25T18:07:21.098Z,99346.95
2023-07-25T18:37:24.568Z,99362.76
2023-07-25T19:07:27.613Z,99380.45
2023-07-25T19:37:31.112Z,99407.55
2023-07-25T20:07:34.521Z,99433.27
2023-07-25T20:37:37.439Z,99454.33
2023-07-25T21:07:40.954Z,99462.80
2023-07-25T21:37:43.965Z,99495.93
2023-07-25T22:07:47.652Z,99521.88
2023-07-25T22:37:51.163Z,99545.81
2023-07-25T23:07:54.183Z,99550.30
2023-07-25T23:37:57.868Z,99539.66
